Time;durP1;ratioP1;P1;durP2;ratioP2;P2;SDS_P1;SDS_P2;PMS_P1;PMS_P2;Temp;Humidity;BMP_temperature;BMP_pressure;BME280_temperature;BME280_humidity;BME280_pressure;Samples;Min_cycle;Max_cycle;Signal;HPM_P1;HPM_P2
2022/04/22 00:00:37;;;;;;;13.00;6.30;;;11.10;64.80;;;;;;5047721;28;20379;-73
2022/04/22 00:03:24;;;;;;;9.93;5.82;;;11.10;65.10;;;;;;5015707;28;20037;-73
2022/04/22 00:05:50;;;;;;;9.45;5.60;;;11.00;65.20;;;;;;5013116;28;20493;-74
2022/04/22 00:08:16;;;;;;;10.73;6.22;;;11.00;65.40;;;;;;5049148;28;20033;-72
2022/04/22 00:13:27;;;;;;;9.68;5.88;;;11.00;64.90;;;;;;5039522;28;20044;-74
2022/04/22 00:15:53;;;;;;;10.93;6.90;;;11.10;64.60;;;;;;5050608;28;20115;-72
2022/04/22 00:18:19;;;;;;;11.48;5.82;;;11.20;64.40;;;;;;5033083;28;20041;-74
2022/04/22 00:20:45;;;;;;;10.15;6.03;;;11.20;64.00;;;;;;5034896;28;20037;-75
2022/04/22 00:23:11;;;;;;;15.30;7.10;;;11.20;64.30;;;;;;5034636;28;20033;-73
2022/04/22 00:25:37;;;;;;;13.48;6.65;;;11.20;64.30;;;;;;5036969;28;20037;-72
2022/04/22 00:28:04;;;;;;;12.68;6.47;;;11.20;64.40;;;;;;5017762;28;20040;-73
2022/04/22 00:30:30;;;;;;;;;;;11.20;63.80;;;;;;5017850;28;20145;-73
2022/04/22 00:32:56;;;;;;;9.73;5.50;;;11.20;63.80;;;;;;5043107;28;19920;-73
2022/04/22 00:35:22;;;;;;;10.07;6.30;;;11.20;64.20;;;;;;5054454;28;20032;-73
2022/04/22 00:37:49;;;;;;;12.70;6.38;;;11.20;64.30;;;;;;5050211;28;20120;-73
2022/04/22 00:40:16;;;;;;;9.90;5.95;;;11.20;64.40;;;;;;5035945;28;20053;-73
2022/04/22 00:42:41;;;;;;;;;;;11.20;64.60;;;;;;5049617;28;20046;-73
2022/04/22 00:45:09;;;;;;;21.15;8.88;;;11.20;64.10;;;;;;5032340;28;19917;-72
2022/04/22 00:47:35;;;;;;;12.25;6.95;;;11.20;64.20;;;;;;5017385;28;20112;-73
2022/04/22 00:50:02;;;;;;;;;;;11.20;65.20;;;;;;5003893;28;20030;-74
2022/04/22 00:52:28;;;;;;;9.75;5.28;;;11.10;64.70;;;;;;5012541;28;19948;-73
2022/04/22 00:54:54;;;;;;;10.50;5.15;;;11.10;65.10;;;;;;5009931;28;20487;-73
2022/04/22 00:57:20;;;;;;;9.07;5.47;;;11.10;65.20;;;;;;4981085;28;20034;-73
2022/04/22 00:59:47;;;;;;;19.23;6.30;;;11.20;65.00;;;;;;4997748;28;20038;-73
2022/04/22 01:02:13;;;;;;;;;;;11.20;64.20;;;;;;4998656;28;20073;-73
2022/04/22 01:10:09;;;;;;;9.43;5.82;;;11.30;64.30;;;;;;5006190;28;20037;-74
2022/04/22 01:12:35;;;;;;;11.18;6.50;;;11.30;64.30;;;;;;4997562;28;20034;-73
2022/04/22 01:15:02;;;;;;;9.10;5.00;;;11.30;64.50;;;;;;5015938;28;20060;-73
2022/04/22 01:17:29;;;;;;;9.13;4.75;;;11.30;64.50;;;;;;4980800;28;20137;-73
2022/04/22 01:19:55;;;;;;;8.98;5.32;;;11.40;64.50;;;;;;4997135;28;20084;-73
2022/04/22 01:22:22;;;;;;;8.63;5.30;;;11.40;64.40;;;;;;5032591;28;20037;-73
2022/04/22 01:24:55;;;;;;;9.02;4.95;;;11.40;63.90;;;;;;5015180;28;20033;-73
2022/04/22 01:27:23;;;;;;;8.82;4.60;;;11.40;64.50;;;;;;5013886;28;20037;-74
2022/04/22 01:29:50;;;;;;;8.52;4.85;;;11.40;64.10;;;;;;5033309;28;20029;-74
2022/04/22 01:32:16;;;;;;;9.15;4.82;;;11.40;64.10;;;;;;5014694;28;20041;-73
2022/04/22 01:34:42;;;;;;;8.38;4.50;;;11.40;64.70;;;;;;5032979;28;20030;-74
2022/04/22 01:37:08;;;;;;;9.23;4.88;;;11.40;64.60;;;;;;5031917;28;20037;-72
2022/04/22 01:39:34;;;;;;;8.43;4.82;;;11.40;64.60;;;;;;5017677;28;20437;-73
2022/04/22 01:42:00;;;;;;;9.63;5.13;;;11.40;64.70;;;;;;4996521;28;20057;-72
2022/04/22 01:44:26;;;;;;;10.18;4.53;;;11.40;64.90;;;;;;5026409;28;20051;-73
2022/04/22 01:46:55;;;;;;;8.40;3.80;;;11.40;64.90;;;;;;5018743;28;20099;-73
2022/04/22 01:49:21;;;;;;;8.90;4.90;;;11.40;64.70;;;;;;5050138;28;20025;-73
2022/04/22 01:51:47;;;;;;;8.70;4.47;;;11.30;64.90;;;;;;5015895;28;20084;-73
2022/04/22 01:54:14;;;;;;;9.25;4.93;;;11.40;65.00;;;;;;5017564;28;20029;-74
2022/04/22 01:56:40;;;;;;;8.82;4.63;;;11.40;65.00;;;;;;5051222;28;20393;-72
2022/04/22 01:59:07;;;;;;;9.27;5.25;;;11.30;65.00;;;;;;5035586;28;20474;-73
2022/04/22 02:01:33;;;;;;;9.05;5.35;;;11.40;65.00;;;;;;5049589;28;20044;-73
2022/04/22 02:03:59;;;;;;;8.55;5.00;;;11.40;65.10;;;;;;5032512;28;20060;-73
2022/04/22 02:06:25;;;;;;;9.00;5.32;;;11.30;65.20;;;;;;5015512;28;20045;-74
2022/04/22 02:08:51;;;;;;;8.95;5.22;;;11.30;65.20;;;;;;5034587;28;20052;-73
2022/04/22 02:11:17;;;;;;;9.60;5.22;;;11.40;65.10;;;;;;5027844;28;20045;-73
2022/04/22 02:13:43;;;;;;;8.50;4.90;;;11.40;65.00;;;;;;5015905;28;20120;-74
2022/04/22 02:16:09;;;;;;;9.75;5.22;;;11.40;65.00;;;;;;5031005;28;20052;-73
2022/04/22 02:21:21;;;;;;;11.70;5.57;;;11.50;65.00;;;;;;5032845;28;20512;-73
2022/04/22 02:23:47;;;;;;;13.75;5.53;;;11.50;65.10;;;;;;5015911;28;20041;-73
2022/04/22 02:26:13;;;;;;;9.55;5.25;;;11.40;65.00;;;;;;5019829;28;20084;-73
2022/04/22 02:28:39;;;;;;;9.57;5.38;;;11.50;65.00;;;;;;5025604;28;20110;-73
2022/04/22 02:31:26;;;;;;;10.13;5.25;;;11.50;65.00;;;;;;5035253;28;20045;-72
2022/04/22 02:33:52;;;;;;;14.30;5.22;;;11.40;65.10;;;;;;5016552;28;20293;-73
2022/04/22 02:36:18;;;;;;;11.48;5.90;;;11.40;65.10;;;;;;5032772;28;20037;-73
2022/04/22 02:38:44;;;;;;;8.55;4.97;;;11.40;65.30;;;;;;5028339;28;20056;-73
2022/04/22 02:46:40;;;;;;;11.25;5.38;;;11.30;65.90;;;;;;5036497;28;20083;-73
2022/04/22 02:49:06;;;;;;;9.95;5.72;;;11.30;66.00;;;;;;5050592;28;20108;-73
2022/04/22 02:51:32;;;;;;;10.93;5.60;;;11.30;66.10;;;;;;5051911;28;20083;-73
2022/04/22 02:53:58;;;;;;;11.15;5.82;;;11.30;66.10;;;;;;5051984;28;20041;-74
2022/04/22 02:56:25;;;;;;;;;;;11.30;66.30;;;;;;5014752;28;20033;-73
2022/04/22 02:58:52;;;;;;;9.97;5.07;;;11.20;65.50;;;;;;5038801;28;19956;-74
2022/04/22 03:01:18;;;;;;;11.65;5.97;;;11.20;66.00;;;;;;5018290;28;20063;-73
2022/04/22 03:03:46;;;;;;;9.15;5.15;;;11.20;65.90;;;;;;5034231;28;20033;-73
2022/04/22 03:06:13;;;;;;;10.50;5.25;;;11.20;66.70;;;;;;5033822;28;20044;-73
2022/04/22 03:08:39;;;;;;;10.60;5.75;;;11.10;67.20;;;;;;5032258;28;20363;-73
2022/04/22 03:11:05;;;;;;;10.02;5.43;;;11.10;67.50;;;;;;5029551;28;20044;-74
2022/04/22 03:13:31;;;;;;;;;;;11.10;67.10;;;;;;5033302;28;20120;-73
2022/04/22 03:15:59;;;;;;;9.07;4.72;;;11.10;67.10;;;;;;4998129;28;19923;-74
2022/04/22 03:18:25;;;;;;;12.35;5.45;;;11.00;67.80;;;;;;5016058;28;20041;-74
2022/04/22 03:20:51;;;;;;;9.05;5.57;;;11.00;67.70;;;;;;5014315;28;20036;-74
2022/04/22 03:23:17;;;;;;;9.82;5.32;;;11.00;68.50;;;;;;5032483;28;20079;-74
2022/04/22 03:25:44;;;;;;;11.65;5.80;;;11.00;68.80;;;;;;5038746;28;20048;-74
2022/04/22 03:28:10;;;;;;;10.38;5.50;;;10.90;69.10;;;;;;5032835;28;20486;-74
2022/04/22 03:30:37;;;;;;;11.10;5.88;;;10.90;69.40;;;;;;5031144;28;20481;-75
2022/04/22 03:33:04;;;;;;;9.98;6.25;;;10.90;69.70;;;;;;5018933;28;20061;-74
2022/04/22 03:35:30;;;;;;;11.60;6.82;;;10.90;69.60;;;;;;5023152;28;20029;-74
2022/04/22 03:37:56;;;;;;;12.73;6.10;;;10.90;69.60;;;;;;5027272;28;20056;-74
2022/04/22 03:40:24;;;;;;;12.40;6.22;;;10.90;69.50;;;;;;5034206;28;20044;-74
2022/04/22 03:42:52;;;;;;;12.35;5.93;;;10.90;69.30;;;;;;5038403;28;20535;-74
2022/04/22 03:45:20;;;;;;;14.40;7.07;;;11.00;68.80;;;;;;5014564;28;20039;-74
2022/04/22 03:47:46;;;;;;;10.30;5.95;;;11.00;69.50;;;;;;5031989;28;20026;-74
2022/04/22 03:50:13;;;;;;;10.35;5.32;;;11.00;69.90;;;;;;5031826;28;20036;-74
2022/04/22 03:52:39;;;;;;;9.35;4.95;;;10.90;70.00;;;;;;5017726;28;20385;-74
2022/04/22 03:55:06;;;;;;;12.52;5.70;;;10.90;70.40;;;;;;5036120;28;20029;-75
2022/04/22 04:00:17;;;;;;;9.07;5.35;;;10.90;70.70;;;;;;5054894;28;20083;-74
2022/04/22 04:02:43;;;;;;;11.70;5.80;;;10.80;70.70;;;;;;5055794;28;20037;-74
2022/04/22 04:05:09;;;;;;;10.82;5.80;;;10.80;70.90;;;;;;5052807;28;20037;-74
2022/04/22 04:07:36;;;;;;;9.07;5.03;;;10.80;70.30;;;;;;5032115;28;20440;-74
2022/04/22 04:18:16;;;;;;;9.90;5.38;;;10.80;71.10;;;;;;5020994;28;20489;-74
2022/04/22 04:23:26;;;;;;;10.60;5.75;;;10.70;71.70;;;;;;5039826;28;20047;-74
2022/04/22 04:25:52;;;;;;;11.63;5.72;;;10.70;71.90;;;;;;5038258;28;20041;-75
2022/04/22 04:28:19;;;;;;;10.30;6.32;;;10.70;72.20;;;;;;5018580;28;20034;-73
2022/04/22 04:30:46;;;;;;;10.25;5.40;;;10.60;72.30;;;;;;5000911;28;20037;-75
2022/04/22 04:33:12;;;;;;;10.45;5.80;;;10.70;72.50;;;;;;5018728;28;20041;-75
2022/04/22 04:35:38;;;;;;;;;;;10.60;73.20;;;;;;5017953;28;20037;-75
2022/04/22 04:40:51;;;;;;;9.98;6.82;;;10.50;73.30;;;;;;5028006;28;20056;-74
2022/04/22 04:43:18;;;;;;;11.95;5.38;;;10.50;73.80;;;;;;5017668;28;20056;-74
2022/04/22 04:45:45;;;;;;;10.30;5.63;;;10.50;73.90;;;;;;5052818;28;20041;-74
2022/04/22 04:48:12;;;;;;;12.60;6.32;;;10.50;74.40;;;;;;5053756;28;20037;-74
2022/04/22 04:50:57;;;;;;;11.63;6.43;;;10.50;74.40;;;;;;5051497;28;20028;-73
2022/04/22 04:53:23;;;;;;;11.18;5.38;;;10.50;75.00;;;;;;5054262;28;20064;-74
2022/04/22 04:58:35;;;;;;;8.60;4.88;;;10.50;74.20;;;;;;5022305;28;20385;-74
2022/04/22 05:01:01;;;;;;;9.02;5.30;;;10.50;74.70;;;;;;5016884;28;20439;-74
2022/04/22 05:03:27;;;;;;;11.55;5.45;;;10.40;75.10;;;;;;5014648;28;20473;-74
2022/04/22 05:05:53;;;;;;;9.40;4.80;;;10.50;75.20;;;;;;5035018;28;20028;-74
2022/04/22 05:08:19;;;;;;;9.30;4.90;;;10.50;75.20;;;;;;5052203;28;20033;-74
2022/04/22 05:10:45;;;;;;;9.63;5.32;;;10.50;75.20;;;;;;5053382;28;20029;-75
2022/04/22 05:13:11;;;;;;;11.20;5.13;;;10.50;75.50;;;;;;5033069;28;20042;-74
2022/04/22 05:15:39;;;;;;;11.82;5.25;;;10.50;75.50;;;;;;5030524;28;20394;-74
2022/04/22 05:18:05;;;;;;;9.63;4.38;;;10.50;75.50;;;;;;5036095;28;20037;-73
2022/04/22 05:20:32;;;;;;;7.57;4.03;;;10.50;74.90;;;;;;5034236;28;20096;-73
2022/04/22 05:22:58;;;;;;;8.07;4.63;;;10.60;75.50;;;;;;5046743;28;20033;-73
2022/04/22 05:25:25;;;;;;;8.48;4.78;;;10.60;75.50;;;;;;5035561;28;20037;-74
2022/04/22 05:27:51;;;;;;;8.90;4.85;;;10.60;74.80;;;;;;5034827;28;20515;-74
2022/04/22 05:33:03;;;;;;;9.00;4.88;;;10.70;75.60;;;;;;5038950;28;20063;-73
2022/04/22 05:35:30;;;;;;;10.30;5.13;;;10.70;75.50;;;;;;5018401;28;20025;-74
2022/04/22 05:37:59;;;;;;;9.90;5.28;;;10.70;74.90;;;;;;5023201;28;20444;-73
2022/04/22 05:40:46;;;;;;;12.00;6.20;;;10.80;75.40;;;;;;5026869;28;20036;-73
2022/04/22 05:43:12;;;;;;;10.10;5.87;;;10.80;75.70;;;;;;5021286;28;20049;-74
2022/04/22 05:45:38;;;;;;;12.43;7.15;;;10.80;75.30;;;;;;5036066;28;20478;-74
2022/04/22 05:48:05;;;;;;;24.35;15.70;;;10.80;75.40;;;;;;5052166;28;20069;-73
2022/04/22 05:50:31;;;;;;;31.52;18.52;;;10.90;75.40;;;;;;5035241;28;20033;-74
2022/04/22 05:52:58;;;;;;;27.58;16.77;;;10.90;75.50;;;;;;5029368;28;20026;-73
2022/04/22 05:55:27;;;;;;;21.75;11.48;;;10.90;75.40;;;;;;5015800;28;20037;-74
2022/04/22 05:57:54;;;;;;;22.77;10.23;;;10.90;75.30;;;;;;5025337;28;20087;-74
2022/04/22 06:00:40;;;;;;;15.13;8.93;;;11.00;75.30;;;;;;4999494;28;20037;-74
2022/04/22 06:03:07;;;;;;;14.13;6.07;;;11.10;75.80;;;;;;5016089;28;20029;-73
2022/04/22 06:05:33;;;;;;;15.15;7.57;;;11.00;75.50;;;;;;5033199;28;20113;-73
2022/04/22 06:10:53;;;;;;;11.88;6.22;;;11.10;76.10;;;;;;5018393;28;20048;-73
2022/04/22 06:13:20;;;;;;;9.65;5.93;;;11.10;76.00;;;;;;5028690;28;20120;-73
2022/04/22 06:15:46;;;;;;;9.93;6.35;;;11.20;76.00;;;;;;5032911;28;20033;-73
2022/04/22 06:18:12;;;;;;;13.70;6.90;;;11.20;76.00;;;;;;5015213;28;20065;-74
2022/04/22 06:20:38;;;;;;;12.60;6.32;;;11.20;75.80;;;;;;5015489;28;20446;-74
2022/04/22 06:23:04;;;;;;;9.00;4.82;;;11.30;75.80;;;;;;5034098;28;20155;-73
2022/04/22 06:25:30;;;;;;;9.00;5.55;;;11.30;75.70;;;;;;5032941;28;20077;-73
2022/04/22 06:27:56;;;;;;;9.57;5.22;;;11.30;75.60;;;;;;5027662;28;20037;-74
2022/04/22 06:30:24;;;;;;;10.35;4.93;;;11.40;75.60;;;;;;5035024;28;20048;-73
2022/04/22 06:32:53;;;;;;;9.70;5.15;;;11.40;75.40;;;;;;5035497;28;20044;-73
2022/04/22 06:38:08;;;;;;;10.73;6.45;;;11.40;75.50;;;;;;5030500;28;20103;-75
2022/04/22 06:46:05;;;;;;;11.02;6.13;;;11.50;75.10;;;;;;5032646;28;20128;-73
2022/04/22 06:48:33;;;;;;;;;;;11.60;75.70;;;;;;5015976;28;20025;-73
2022/04/22 06:51:01;;;;;;;10.18;5.20;;;11.50;74.50;;;;;;5014876;28;19913;-73
2022/04/22 06:53:28;;;;;;;13.30;5.93;;;11.60;75.00;;;;;;5015372;28;20061;-73
2022/04/22 06:55:59;;;;;;;8.48;4.72;;;11.60;74.70;;;;;;5031153;28;20029;-74
2022/04/22 06:58:26;;;;;;;18.63;5.78;;;11.60;75.30;;;;;;5029191;28;20044;-73
2022/04/22 07:00:53;;;;;;;11.65;6.13;;;11.70;75.30;;;;;;5034644;28;20498;-74
2022/04/22 07:03:19;;;;;;;11.50;5.45;;;11.70;75.30;;;;;;5018472;28;20021;-73
2022/04/22 07:05:51;;;;;;;10.18;5.65;;;11.80;75.40;;;;;;5034382;28;20036;-74
2022/04/22 07:08:18;;;;;;;10.65;5.95;;;11.80;75.40;;;;;;5052744;28;20025;-73
2022/04/22 07:10:46;;;;;;;15.15;7.45;;;11.80;75.00;;;;;;5034164;28;20063;-74
2022/04/22 07:13:14;;;;;;;14.80;7.45;;;11.80;75.60;;;;;;5030509;28;20112;-74
2022/04/22 07:15:41;;;;;;;12.02;5.50;;;11.90;75.40;;;;;;5014903;28;20566;-74
2022/04/22 07:18:08;;;;;;;12.50;6.68;;;11.90;74.90;;;;;;5014989;28;20088;-74
2022/04/22 07:20:35;;;;;;;10.07;5.70;;;11.90;75.30;;;;;;5014386;28;20092;-74
2022/04/22 07:23:01;;;;;;;13.05;6.78;;;12.00;74.70;;;;;;5015247;28;20446;-74
2022/04/22 07:25:28;;;;;;;12.50;6.38;;;12.00;75.30;;;;;;5032134;28;20034;-74
2022/04/22 07:27:55;;;;;;;18.95;7.63;;;12.00;74.50;;;;;;5005839;28;20039;-74
2022/04/22 07:30:24;;;;;;;13.13;7.20;;;12.10;74.90;;;;;;5034248;28;20025;-74
2022/04/22 07:32:50;;;;;;;13.85;7.15;;;12.20;74.70;;;;;;5018148;28;20044;-74
2022/04/22 07:35:19;;;;;;;15.73;7.13;;;12.20;73.90;;;;;;5017664;28;20025;-74
2022/04/22 07:38:05;;;;;;;14.18;8.32;;;12.20;74.40;;;;;;5052533;28;20036;-74
2022/04/22 07:40:32;;;;;;;13.25;7.05;;;12.20;74.40;;;;;;5017574;28;20029;-74
2022/04/22 07:48:28;;;;;;;11.35;5.70;;;12.30;73.60;;;;;;5037269;28;20534;-74
2022/04/22 07:50:54;;;;;;;;;;;12.30;73.60;;;;;;5034527;28;20029;-74
2022/04/22 07:53:22;;;;;;;12.60;6.68;;;12.30;73.90;;;;;;5034541;28;19919;-74
2022/04/22 07:55:49;;;;;;;15.85;9.15;;;12.30;73.70;;;;;;5017352;28;20060;-74
2022/04/22 07:58:17;;;;;;;15.32;7.80;;;12.30;73.80;;;;;;5033490;28;20057;-73
2022/04/22 08:00:45;;;;;;;13.05;8.07;;;12.40;73.80;;;;;;5033724;28;20051;-74
2022/04/22 08:03:31;;;;;;;14.95;8.43;;;12.40;73.70;;;;;;5051912;28;20025;-74
2022/04/22 08:05:57;;;;;;;10.60;6.25;;;12.50;73.80;;;;;;5033914;28;20239;-74
2022/04/22 08:08:24;;;;;;;18.95;7.28;;;12.50;73.60;;;;;;5052107;28;20482;-74
2022/04/22 08:10:50;;;;;;;14.85;8.32;;;12.50;73.50;;;;;;5033860;28;20410;-74
2022/04/22 08:13:16;;;;;;;13.77;8.43;;;12.60;73.50;;;;;;5033158;28;20033;-73
2022/04/22 08:15:42;;;;;;;16.88;9.23;;;12.70;73.40;;;;;;5017139;28;20036;-74
2022/04/22 08:18:08;;;;;;;16.50;7.57;;;12.80;73.20;;;;;;5034220;28;20029;-74
2022/04/22 08:20:35;;;;;;;17.30;8.70;;;12.80;72.90;;;;;;5017180;28;20422;-74
2022/04/22 08:23:02;;;;;;;11.75;6.50;;;12.90;72.80;;;;;;5034533;28;20163;-73
2022/04/22 08:25:29;;;;;;;13.68;7.03;;;12.90;72.50;;;;;;5033572;28;20032;-73
2022/04/22 08:27:55;;;;;;;10.88;5.97;;;13.00;72.60;;;;;;5033415;28;20087;-73
2022/04/22 08:30:21;;;;;;;;;;;13.00;72.70;;;;;;5034268;28;20030;-74
2022/04/22 08:32:47;;;;;;;14.60;6.22;;;13.00;71.70;;;;;;5017652;28;19921;-74
2022/04/22 08:35:14;;;;;;;12.55;7.15;;;13.10;72.40;;;;;;5033735;28;20065;-73
2022/04/22 08:37:44;;;;;;;14.30;7.45;;;13.10;72.50;;;;;;5029444;28;20050;-74
2022/04/22 08:40:12;;;;;;;15.00;7.22;;;13.10;72.40;;;;;;5015289;28;20044;-74
2022/04/22 08:42:40;;;;;;;11.60;7.28;;;13.10;72.60;;;;;;5017627;28;20056;-74
2022/04/22 08:45:10;;;;;;;14.43;7.80;;;13.00;72.50;;;;;;5020530;28;20041;-73
2022/04/22 08:50:44;;;;;;;12.97;7.77;;;13.00;72.70;;;;;;5039842;28;20043;-73
2022/04/22 08:53:18;;;;;;;14.70;8.23;;;13.00;72.70;;;;;;5055203;28;20430;-74
2022/04/22 08:55:46;;;;;;;19.42;8.93;;;13.00;72.70;;;;;;5037081;28;20059;-74
2022/04/22 08:58:13;;;;;;;15.82;9.13;;;13.00;72.80;;;;;;5036186;28;20040;-74
2022/04/22 09:00:41;;;;;;;25.60;12.52;;;13.00;72.60;;;;;;5054643;28;20040;-75
2022/04/22 09:03:09;;;;;;;34.72;17.23;;;13.00;72.70;;;;;;5037285;28;20547;-74
2022/04/22 09:05:36;;;;;;;14.07;8.07;;;13.00;72.50;;;;;;5036792;28;20075;-73
2022/04/22 09:08:03;;;;;;;15.63;8.75;;;13.00;72.40;;;;;;5037456;28;20043;-75
2022/04/22 09:10:29;;;;;;;16.15;9.75;;;13.00;72.50;;;;;;5036704;28;20037;-74
2022/04/22 09:12:56;;;;;;;;;;;13.00;72.60;;;;;;5055192;28;20033;-74
2022/04/22 09:15:24;;;;;;;;;;;13.00;72.40;;;;;;5020623;28;20370;-74
2022/04/22 09:17:57;;;;;;;13.82;7.45;;;13.00;72.00;;;;;;5037059;28;19924;-73
2022/04/22 09:20:46;;;;;;;14.43;8.35;;;13.00;72.00;;;;;;5037255;28;20110;-74
2022/04/22 09:23:33;;;;;;;17.02;7.15;;;13.10;72.20;;;;;;5036896;28;20036;-73
2022/04/22 09:26:02;;;;;;;19.23;9.63;;;13.10;72.20;;;;;;5019672;28;20390;-74
2022/04/22 09:28:28;;;;;;;18.85;7.72;;;13.10;72.20;;;;;;5035836;28;20036;-73
2022/04/22 09:31:13;;;;;;;22.75;11.50;;;13.10;71.70;;;;;;5019650;28;20478;-73
2022/04/22 09:33:58;;;;;;;16.85;8.75;;;13.10;72.40;;;;;;5036594;28;20083;-74
2022/04/22 09:45:16;;;;;;;14.85;7.90;;;13.20;71.40;;;;;;5036002;28;20063;-75
2022/04/22 09:47:43;;;;;;;11.82;6.97;;;13.20;71.60;;;;;;5036567;28;20029;-74
2022/04/22 09:50:12;;;;;;;18.63;7.43;;;13.30;71.50;;;;;;5035732;28;20036;-74
2022/04/22 09:55:25;;;;;;;12.77;7.00;;;13.30;71.40;;;;;;5038869;28;20512;-73
2022/04/22 09:58:10;;;;;;;14.85;8.13;;;13.20;72.60;;;;;;5036031;28;20037;-74
2022/04/22 10:00:36;;;;;;;21.15;8.65;;;13.20;71.90;;;;;;5031251;28;20033;-74
2022/04/22 10:03:04;;;;;;;17.63;10.02;;;13.20;72.00;;;;;;5034368;28;20160;-74
2022/04/22 10:05:31;;;;;;;15.68;8.85;;;13.30;72.00;;;;;;5015587;28;20041;-74
2022/04/22 10:08:19;;;;;;;15.00;9.13;;;13.20;72.00;;;;;;4999854;28;20364;-74
2022/04/22 10:10:46;;;;;;;14.52;8.15;;;13.30;71.90;;;;;;5033314;28;20029;-73
2022/04/22 10:16:02;;;;;;;15.43;9.88;;;13.40;71.40;;;;;;5018824;28;20048;-74
2022/04/22 10:18:30;;;;;;;14.10;8.40;;;13.50;71.20;;;;;;4999826;28;20042;-74
2022/04/22 10:20:58;;;;;;;13.82;7.93;;;13.50;71.20;;;;;;4999081;28;20048;-74
2022/04/22 10:23:24;;;;;;;20.63;9.25;;;13.50;71.40;;;;;;5015951;28;20033;-74
2022/04/22 10:25:50;;;;;;;;;;;13.40;71.60;;;;;;5032307;28;20405;-73
2022/04/22 10:28:17;;;;;;;17.75;8.25;;;13.40;71.50;;;;;;5015835;28;19916;-74
2022/04/22 10:30:44;;;;;;;13.25;8.60;;;13.30;71.40;;;;;;5049327;28;20072;-74
2022/04/22 10:33:11;;;;;;;15.50;7.88;;;13.30;71.40;;;;;;5053250;28;20040;-74
2022/04/22 10:36:15;;;;;;;16.80;7.90;;;13.30;71.70;;;;;;5052665;28;20395;-74
2022/04/22 10:38:45;;;;;;;22.63;9.30;;;13.40;71.70;;;;;;5022587;28;20045;-74
2022/04/22 10:41:33;;;;;;;18.20;8.73;;;13.50;71.20;;;;;;5015608;28;20052;-74
2022/04/22 10:49:53;;;;;;;12.70;7.85;;;14.00;70.20;;;;;;5037971;28;20572;-74
2022/04/22 10:52:20;;;;;;;18.67;9.45;;;13.90;70.50;;;;;;5052790;28;20033;-74
2022/04/22 10:55:05;;;;;;;16.40;8.85;;;13.90;70.70;;;;;;5052973;28;20052;-74
2022/04/22 10:57:35;;;;;;;27.10;11.95;;;13.90;70.90;;;;;;5034961;28;20482;-75
2022/04/22 11:00:08;;;;;;;18.63;11.70;;;13.90;70.60;;;;;;5034686;28;20044;-74
2022/04/22 11:02:43;;;;;;;23.45;11.13;;;13.90;70.60;;;;;;5052770;28;20550;-74
2022/04/22 11:05:30;;;;;;;19.10;10.50;;;14.00;70.40;;;;;;5018420;28;20506;-74
2022/04/22 11:07:57;;;;;;;;;;;14.10;70.50;;;;;;5053798;28;20073;-74
2022/04/22 11:11:01;;;;;;;15.85;9.43;;;14.10;70.00;;;;;;5052292;28;19962;-74
2022/04/22 11:13:50;;;;;;;18.92;10.07;;;14.20;69.80;;;;;;5034738;28;20044;-74
2022/04/22 11:16:35;;;;;;;16.23;9.88;;;14.40;69.60;;;;;;5034039;28;20474;-74
2022/04/22 11:19:19;;;;;;;14.57;9.27;;;14.60;69.80;;;;;;5034858;28;20033;-74
2022/04/22 11:21:55;;;;;;;17.73;9.38;;;14.70;69.50;;;;;;5052245;28;20438;-74
2022/04/22 11:24:25;;;;;;;24.88;9.95;;;14.80;69.10;;;;;;5019273;28;20025;-74
2022/04/22 11:26:53;;;;;;;17.75;10.15;;;14.80;69.00;;;;;;5034240;28;20040;-74
2022/04/22 11:29:19;;;;;;;18.63;9.60;;;14.80;69.10;;;;;;5017410;28;20041;-74
2022/04/22 11:32:11;;;;;;;18.42;10.35;;;14.80;69.40;;;;;;5034286;28;20036;-74
2022/04/22 11:35:20;;;;;;;15.18;9.32;;;14.90;69.20;;;;;;5034623;28;20071;-74
2022/04/22 11:38:15;;;;;;;15.73;9.77;;;14.80;69.10;;;;;;5047427;28;20030;-74
2022/04/22 11:40:43;;;;;;;17.88;9.32;;;14.80;69.20;;;;;;4998032;28;20627;-73
2022/04/22 11:43:10;;;;;;;19.95;9.50;;;14.80;69.00;;;;;;5032282;28;20053;-74
2022/04/22 11:45:55;;;;;;;16.40;8.82;;;14.80;68.90;;;;;;5043650;28;20429;-74
2022/04/22 11:48:24;;;;;;;19.70;10.23;;;14.80;68.80;;;;;;5034512;28;20036;-75
2022/04/22 11:50:52;;;;;;;17.20;9.15;;;14.70;68.90;;;;;;5050325;28;20033;-74
2022/04/22 11:53:45;;;;;;;21.52;10.90;;;14.70;68.80;;;;;;5034734;28;20056;-74
2022/04/22 11:59:39;;;;;;;17.23;9.65;;;14.70;68.80;;;;;;5051864;28;20048;-74
2022/04/22 12:10:30;;;;;;;17.88;9.70;;;14.30;69.10;;;;;;5051780;28;20470;-74
2022/04/22 12:13:19;;;;;;;13.65;9.05;;;14.20;69.30;;;;;;5034996;28;20041;-74
2022/04/22 12:16:05;;;;;;;14.38;8.82;;;14.10;70.00;;;;;;5052346;28;20095;-74
2022/04/22 12:18:34;;;;;;;17.00;9.48;;;14.10;70.10;;;;;;5021507;28;20037;-74
2022/04/22 12:21:02;;;;;;;15.73;9.75;;;14.00;70.00;;;;;;5021112;28;20056;-74
2022/04/22 12:24:06;;;;;;;18.42;9.95;;;14.00;70.00;;;;;;5038016;28;20033;-74
2022/04/22 12:26:34;;;;;;;17.52;9.82;;;14.10;69.90;;;;;;5020689;28;20287;-74
2022/04/22 12:29:38;;;;;;;17.00;9.93;;;14.10;69.70;;;;;;5021420;28;20498;-74
2022/04/22 12:32:04;;;;;;;17.88;9.15;;;14.20;69.50;;;;;;5037285;28;20048;-74
2022/04/22 12:34:34;;;;;;;;;;;14.20;69.70;;;;;;5038279;28;20393;-74
2022/04/22 12:37:03;;;;;;;17.23;10.40;;;14.20;69.20;;;;;;5037906;28;20485;-74
2022/04/22 12:39:49;;;;;;;15.77;9.13;;;14.20;69.40;;;;;;5037663;28;20540;-74
2022/04/22 12:42:18;;;;;;;17.77;9.07;;;14.30;69.60;;;;;;5053557;28;20060;-74
2022/04/22 12:54:33;;;;;;;21.20;12.75;;;14.50;69.70;;;;;;5055221;28;20106;-74
2022/04/22 12:56:59;;;;;;;23.08;13.55;;;14.50;69.90;;;;;;5036954;28;20064;-74
2022/04/22 12:59:44;;;;;;;25.48;15.70;;;14.60;69.70;;;;;;5037283;28;20040;-74
2022/04/22 13:02:14;;;;;;;17.63;10.63;;;14.80;69.40;;;;;;5020205;28;20118;-74
2022/04/22 13:05:00;;;;;;;16.00;8.40;;;15.10;68.80;;;;;;5037314;28;20033;-75
2022/04/22 13:07:56;;;;;;;13.00;7.35;;;15.30;68.10;;;;;;5054432;28;20041;-74
2022/04/22 13:10:23;;;;;;;12.32;5.70;;;15.70;67.40;;;;;;5037064;28;20032;-74
2022/04/22 13:12:50;;;;;;;9.38;4.85;;;16.40;65.80;;;;;;5037253;28;20437;-74
2022/04/22 13:15:19;;;;;;;9.10;4.30;;;17.30;63.60;;;;;;5035762;28;20299;-74
2022/04/22 13:17:47;;;;;;;8.20;3.75;;;18.60;60.00;;;;;;5037126;28;20041;-74
2022/04/22 13:20:16;;;;;;;6.80;3.55;;;19.40;57.40;;;;;;5054356;28;20079;-75
2022/04/22 13:22:43;;;;;;;7.15;3.50;;;19.60;56.70;;;;;;5036994;28;20441;-74
2022/04/22 13:25:11;;;;;;;11.43;6.32;;;19.70;56.30;;;;;;5019722;28;20041;-74
2022/04/22 13:27:39;;;;;;;10.73;6.88;;;19.80;56.00;;;;;;5036577;28;20438;-75
2022/04/22 13:30:07;;;;;;;9.32;4.10;;;20.80;53.60;;;;;;5035813;28;20063;-74
2022/04/22 13:32:33;;;;;;;7.15;4.00;;;21.10;52.20;;;;;;5016942;28;20520;-74
2022/04/22 13:35:00;;;;;;;8.88;4.10;;;21.30;51.80;;;;;;5016742;28;20033;-74
2022/04/22 13:37:25;;;;;;;;;;;21.00;52.10;;;;;;5019329;28;20052;-74
2022/04/22 13:39:52;;;;;;;8.82;4.20;;;20.60;54.90;;;;;;5054393;28;19916;-75
2022/04/22 13:53:17;;;;;;;9.15;5.90;;;20.40;52.40;;;;;;5027585;28;20048;-74
2022/04/22 13:55:43;;;;;;;;;;;19.90;53.20;;;;;;5034417;28;20026;-74
2022/04/22 13:58:09;;;;;;;9.98;5.78;;;19.60;54.70;;;;;;5016285;28;19968;-74
2022/04/22 14:00:35;;;;;;;;;;;19.60;53.90;;;;;;5015581;28;20034;-74
2022/04/22 14:03:03;;;;;;;10.48;5.70;;;19.60;54.00;;;;;;5053743;28;19970;-74
2022/04/22 14:05:29;;;;;;;9.00;5.45;;;19.60;53.40;;;;;;5053325;28;20040;-74
2022/04/22 14:07:55;;;;;;;;;;;19.70;53.70;;;;;;5036744;28;20112;-74
2022/04/22 14:10:22;;;;;;;10.60;5.90;;;19.70;54.20;;;;;;5052080;28;20294;-75
2022/04/22 14:12:47;;;;;;;;;;;19.50;53.40;;;;;;5036554;28;20075;-74
2022/04/22 14:15:14;;;;;;;10.93;6.60;;;19.10;55.30;;;;;;5018852;28;20102;-75
2022/04/22 14:17:41;;;;;;;12.38;6.60;;;18.80;54.40;;;;;;5053176;28;20134;-75
2022/04/22 14:20:08;;;;;;;12.50;7.20;;;18.60;54.80;;;;;;5053303;28;20032;-74
2022/04/22 14:22:34;;;;;;;12.32;7.07;;;18.30;55.00;;;;;;5035777;28;20144;-75
2022/04/22 14:25:00;;;;;;;;;;;18.20;55.30;;;;;;5036092;28;20482;-76
2022/04/22 14:27:26;;;;;;;16.23;8.10;;;18.10;55.60;;;;;;5051714;28;19920;-75
2022/04/22 14:29:53;;;;;;;13.43;8.13;;;18.10;55.60;;;;;;5053464;28;20067;-75
2022/04/22 14:32:19;;;;;;;;;;;18.00;55.50;;;;;;5034854;28;20101;-74
2022/04/22 14:34:45;;;;;;;13.25;7.85;;;17.90;55.70;;;;;;5053393;28;19982;-75
2022/04/22 14:37:12;;;;;;;16.13;8.95;;;17.90;55.50;;;;;;5017613;28;20033;-74
2022/04/22 14:39:38;;;;;;;13.65;8.32;;;17.90;55.50;;;;;;4999115;28;20112;-75
2022/04/22 14:42:04;;;;;;;;;;;17.90;55.40;;;;;;5015938;28;20442;-74
2022/04/22 14:44:30;;;;;;;14.38;7.88;;;17.90;55.40;;;;;;4999179;28;20337;-75
2022/04/22 14:47:16;;;;;;;16.98;8.27;;;18.00;55.30;;;;;;5025113;28;20060;-74